Time;durP1;ratioP1;P1;durP2;ratioP2;P2;SDS_P1;SDS_P2;PMS_P1;PMS_P2;Temp;Humidity;BMP_temperature;BMP_pressure;BME280_temperature;BME280_humidity;BME280_pressure;Samples;Min_cycle;Max_cycle;Signal;HPM_P1;HPM_P2
2022/11/04 00:02:10;;;;;;;12.67;6.30;;;10.80;99.90;;;;;;5037355;28;20194;-64
2022/11/04 00:04:37;;;;;;;12.93;5.67;;;10.80;99.90;;;;;;5042208;28;20209;-65
2022/11/04 00:08:22;;;;;;;10.43;5.37;;;10.80;99.90;;;;;;5039170;28;20190;-65
2022/11/04 00:09:52;;;;;;;11.57;5.30;;;10.80;99.90;;;;;;5045690;28;20234;-66
2022/11/04 00:12:24;;;;;;;10.13;5.17;;;10.90;99.90;;;;;;5048352;28;20305;-64
2022/11/04 00:14:52;;;;;;;12.33;5.60;;;10.90;99.90;;;;;;5039341;28;20196;-65
2022/11/04 00:17:18;;;;;;;13.70;6.10;;;10.90;99.90;;;;;;5043335;28;20243;-65
2022/11/04 00:30:55;;;;;;;5.90;3.93;;;10.90;99.90;;;;;;5044942;28;20231;-65
2022/11/04 00:33:24;;;;;;;6.93;3.77;;;10.90;99.90;;;;;;5038095;28;20204;-64
2022/11/04 00:35:53;;;;;;;7.80;3.90;;;10.90;99.90;;;;;;5048718;28;20687;-64
2022/11/04 00:38:20;;;;;;;12.20;5.67;;;10.80;99.90;;;;;;5042790;28;20194;-65
2022/11/04 00:40:47;;;;;;;9.40;4.97;;;10.90;99.90;;;;;;5039913;28;21022;-64
2022/11/04 00:43:14;;;;;;;8.53;5.07;;;10.80;99.90;;;;;;5041020;28;20283;-65
2022/11/04 00:45:42;;;;;;;7.13;4.53;;;10.80;99.90;;;;;;5044279;28;20284;-64
2022/11/04 00:48:11;;;;;;;4.80;3.97;;;10.80;99.90;;;;;;5043065;28;20289;-64
2022/11/04 00:50:38;;;;;;;6.63;3.87;;;10.80;99.90;;;;;;5042145;28;20599;-65
2022/11/04 00:53:05;;;;;;;8.90;4.30;;;10.80;99.90;;;;;;5037191;28;20233;-64
2022/11/04 00:55:33;;;;;;;6.03;3.73;;;10.80;99.90;;;;;;5045838;28;20202;-65
2022/11/04 00:58:00;;;;;;;6.47;3.97;;;10.70;99.90;;;;;;5042164;28;20212;-65
2022/11/04 01:00:28;;;;;;;6.00;3.87;;;10.70;99.90;;;;;;5043374;28;20260;-65
2022/11/04 01:02:56;;;;;;;5.40;3.30;;;10.80;99.90;;;;;;5038815;28;20190;-65
2022/11/04 01:05:25;;;;;;;5.57;3.70;;;10.70;99.90;;;;;;5046493;28;20233;-64
2022/11/04 01:07:52;;;;;;;8.00;4.23;;;10.70;99.90;;;;;;5047170;28;20211;-66
2022/11/04 01:10:22;;;;;;;6.07;3.70;;;10.80;99.90;;;;;;5043186;28;20264;-64
2022/11/04 01:12:52;;;;;;;5.50;3.63;;;10.80;99.90;;;;;;5045637;28;20214;-65
2022/11/04 01:15:19;;;;;;;13.10;6.13;;;10.90;99.90;;;;;;5048449;28;20200;-65
2022/11/04 01:17:46;;;;;;;11.60;5.40;;;10.80;99.90;;;;;;5046264;28;20283;-65
2022/11/04 01:20:14;;;;;;;9.40;4.67;;;10.80;99.90;;;;;;5027056;28;20224;-65
2022/11/04 01:22:42;;;;;;;6.77;3.70;;;10.80;99.90;;;;;;5039432;28;20235;-65
2022/11/04 01:25:10;;;;;;;6.03;3.50;;;10.80;99.90;;;;;;5046481;28;20378;-65
2022/11/04 01:27:37;;;;;;;4.77;3.13;;;10.90;99.90;;;;;;5043608;28;20295;-65
2022/11/04 01:30:06;;;;;;;6.33;3.47;;;10.90;99.90;;;;;;5038423;28;20195;-66
2022/11/04 01:32:33;;;;;;;6.50;3.37;;;10.90;99.90;;;;;;5044594;28;20227;-65
2022/11/04 01:35:00;;;;;;;10.03;4.33;;;11.00;99.90;;;;;;5045603;28;20200;-65
2022/11/04 01:37:27;;;;;;;5.90;4.13;;;11.00;99.90;;;;;;5045219;28;20616;-65
2022/11/04 01:39:56;;;;;;;5.90;4.27;;;11.00;99.90;;;;;;5044904;28;20194;-66
2022/11/04 01:42:24;;;;;;;6.20;3.53;;;11.00;99.90;;;;;;5037178;28;20186;-64
2022/11/04 01:44:53;;;;;;;5.17;3.03;;;11.00;99.90;;;;;;5028282;28;20202;-65
2022/11/04 01:47:26;;;;;;;4.73;2.70;;;11.10;99.90;;;;;;5035497;28;20764;-65
2022/11/04 01:49:58;;;;;;;5.83;3.07;;;11.10;99.90;;;;;;5031551;28;20197;-66
2022/11/04 01:52:30;;;;;;;3.47;2.70;;;11.10;99.90;;;;;;5031968;28;20209;-66
2022/11/04 01:55:07;;;;;;;5.70;2.63;;;11.10;99.90;;;;;;5040914;28;20251;-65
2022/11/04 01:57:38;;;;;;;3.43;2.73;;;11.10;99.90;;;;;;5044121;28;20189;-65
2022/11/04 02:00:07;;;;;;;6.17;3.60;;;11.10;99.90;;;;;;5043388;28;20192;-65
2022/11/04 02:02:51;;;;;;;6.33;3.37;;;11.10;99.90;;;;;;5027614;28;20201;-65
2022/11/04 02:05:19;;;;;;;5.57;3.37;;;11.10;99.90;;;;;;5040282;28;20644;-66
2022/11/04 02:07:50;;;;;;;10.37;3.67;;;11.10;99.90;;;;;;5032819;28;20194;-65
2022/11/04 02:10:26;;;;;;;3.43;2.50;;;11.10;99.90;;;;;;5046791;28;20735;-65
2022/11/04 02:12:53;;;;;;;2.80;2.60;;;11.10;99.90;;;;;;5040402;28;20212;-64
2022/11/04 02:15:27;;;;;;;2.00;1.83;;;11.10;99.90;;;;;;5036716;28;20218;-65
2022/11/04 02:18:23;;;;;;;4.13;2.20;;;11.00;99.90;;;;;;5047370;28;20200;-64
2022/11/04 02:21:24;;;;;;;2.47;2.17;;;11.10;99.90;;;;;;5046829;28;20204;-65
2022/11/04 02:24:07;;;;;;;2.87;2.37;;;11.10;99.90;;;;;;4951339;28;20689;-65
2022/11/04 02:27:15;;;;;;;4.63;2.17;;;11.10;99.90;;;;;;5041523;28;20549;-65
2022/11/04 02:29:59;;;;;;;4.50;2.87;;;11.00;99.90;;;;;;5034570;28;20333;-65
2022/11/04 02:32:38;;;;;;;3.70;2.07;;;11.00;99.90;;;;;;5031055;28;20209;-65
2022/11/04 02:35:12;;;;;;;3.30;2.30;;;11.00;99.90;;;;;;5034916;28;20198;-64
2022/11/04 02:37:47;;;;;;;2.30;2.10;;;11.00;99.90;;;;;;5029827;28;20194;-65
2022/11/04 02:40:26;;;;;;;2.97;2.20;;;11.00;99.90;;;;;;5033931;28;20315;-66
2022/11/04 02:42:59;;;;;;;2.60;2.00;;;11.00;99.90;;;;;;5035243;28;20191;-65
2022/11/04 02:45:35;;;;;;;2.80;1.90;;;11.00;99.90;;;;;;5043764;28;20194;-65
2022/11/04 02:48:10;;;;;;;2.57;2.00;;;11.10;99.90;;;;;;5049404;28;20291;-65
2022/11/04 02:50:43;;;;;;;3.20;2.23;;;11.10;99.90;;;;;;5043703;28;20303;-65
2022/11/04 02:53:18;;;;;;;4.27;2.50;;;11.10;99.90;;;;;;5036089;28;20219;-65
2022/11/04 02:55:49;;;;;;;1.93;1.73;;;11.10;99.90;;;;;;5039121;28;20205;-65
2022/11/04 02:58:29;;;;;;;2.73;1.83;;;11.10;99.90;;;;;;5041924;28;20301;-65
2022/11/04 03:00:59;;;;;;;3.47;2.20;;;11.20;99.90;;;;;;5047236;28;20192;-65
2022/11/04 03:03:31;;;;;;;3.23;2.20;;;11.20;99.90;;;;;;5044581;28;20220;-65
2022/11/04 03:06:01;;;;;;;5.50;2.60;;;11.20;99.90;;;;;;5038766;28;20261;-65
2022/11/04 03:08:32;;;;;;;4.37;2.30;;;11.20;99.90;;;;;;5032808;28;20205;-66
2022/11/04 03:11:03;;;;;;;3.60;2.50;;;11.20;99.90;;;;;;5038061;28;20198;-66
2022/11/04 03:13:36;;;;;;;3.57;2.30;;;11.20;99.90;;;;;;5045358;28;20228;-65
2022/11/04 03:16:11;;;;;;;2.87;1.93;;;11.20;99.90;;;;;;5049587;28;20201;-65
2022/11/04 03:18:46;;;;;;;2.87;2.00;;;11.30;99.90;;;;;;5048607;28;20199;-65
2022/11/04 03:21:15;;;;;;;2.07;1.83;;;11.30;99.90;;;;;;5041195;28;20199;-65
2022/11/04 03:23:42;;;;;;;3.03;1.77;;;11.30;99.90;;;;;;5045351;28;20314;-65
2022/11/04 03:26:14;;;;;;;5.30;2.80;;;11.30;99.90;;;;;;5038559;28;20198;-65
2022/11/04 03:28:46;;;;;;;2.63;2.10;;;11.30;99.90;;;;;;5047631;28;20194;-65
2022/11/04 03:31:23;;;;;;;2.13;1.93;;;11.30;99.90;;;;;;5035873;28;20195;-65
2022/11/04 03:33:52;;;;;;;4.43;2.33;;;11.40;99.90;;;;;;5048819;28;20209;-65
2022/11/04 03:36:20;;;;;;;2.93;2.20;;;11.40;99.90;;;;;;5041229;28;20202;-65
2022/11/04 03:38:48;;;;;;;2.73;1.93;;;11.40;99.90;;;;;;5047125;28;20194;-65
2022/11/04 03:41:19;;;;;;;2.10;1.90;;;11.40;99.90;;;;;;5047189;28;20208;-65
2022/11/04 03:43:47;;;;;;;1.80;1.70;;;11.40;99.90;;;;;;5044201;28;20598;-66
2022/11/04 03:46:15;;;;;;;1.60;1.50;;;11.40;99.90;;;;;;5049483;28;20213;-65
2022/11/04 03:48:45;;;;;;;2.20;2.00;;;11.40;99.90;;;;;;5048542;28;20194;-67
2022/11/04 03:51:12;;;;;;;1.67;1.57;;;11.50;99.90;;;;;;5048374;28;20270;-65
2022/11/04 03:53:39;;;;;;;3.43;2.10;;;11.50;99.90;;;;;;5031698;28;20218;-65
2022/11/04 03:56:33;;;;;;;6.57;1.83;;;11.40;99.90;;;;;;5038584;28;20665;-66
2022/11/04 03:59:14;;;;;;;3.17;2.03;;;11.40;99.90;;;;;;5040336;28;20280;-66
2022/11/04 04:01:49;;;;;;;3.80;1.97;;;11.40;99.90;;;;;;5039769;28;20275;-65
2022/11/04 04:04:22;;;;;;;2.43;2.03;;;11.50;99.90;;;;;;5049511;28;20213;-66
2022/11/04 04:06:53;;;;;;;4.03;2.17;;;11.50;99.90;;;;;;5031742;28;20212;-65
2022/11/04 04:09:24;;;;;;;4.30;2.10;;;11.50;99.90;;;;;;5049601;28;20277;-65
2022/11/04 04:11:58;;;;;;;5.97;3.20;;;11.50;99.90;;;;;;5043924;28;20202;-65
2022/11/04 04:14:42;;;;;;;4.37;3.00;;;11.50;99.90;;;;;;5050326;28;20221;-65
2022/11/04 04:17:18;;;;;;;4.13;2.80;;;11.50;99.90;;;;;;5048960;28;20194;-65
2022/11/04 04:19:51;;;;;;;3.33;2.37;;;11.50;99.90;;;;;;5043184;28;20609;-66
2022/11/04 04:22:22;;;;;;;3.70;2.03;;;11.50;99.90;;;;;;5039408;28;20248;-65
2022/11/04 04:27:39;;;;;;;5.80;3.23;;;11.50;99.90;;;;;;5037901;28;20200;-65
2022/11/04 04:30:09;;;;;;;3.67;2.40;;;11.50;99.90;;;;;;5043577;28;20241;-65
2022/11/04 04:32:43;;;;;;;3.23;2.40;;;11.50;99.90;;;;;;5048612;28;20231;-64
2022/11/04 04:44:58;;;;;;;3.30;2.30;;;11.50;99.90;;;;;;5043591;28;20193;-66
2022/11/04 04:46:39;;;;;;;3.20;2.33;;;11.50;99.90;;;;;;4980186;28;20250;-65
2022/11/04 04:49:09;;;;;;;3.33;2.20;;;11.50;99.90;;;;;;5014750;28;20202;-65
2022/11/04 04:51:40;;;;;;;4.43;2.63;;;11.50;99.90;;;;;;5045103;28;20272;-65
2022/11/04 04:54:07;;;;;;;3.70;2.00;;;11.50;99.90;;;;;;5023914;28;20222;-65
2022/11/04 04:56:35;;;;;;;3.43;2.23;;;11.50;99.90;;;;;;5040349;28;20198;-65
2022/11/04 04:59:02;;;;;;;3.63;2.27;;;11.50;99.90;;;;;;5043171;28;20225;-65
2022/11/04 05:01:29;;;;;;;3.50;2.10;;;11.60;99.90;;;;;;5044246;28;20227;-65
2022/11/04 05:03:56;;;;;;;3.20;2.00;;;11.60;99.90;;;;;;5045444;28;20193;-66
2022/11/04 05:06:25;;;;;;;2.23;2.07;;;11.60;99.90;;;;;;5044032;28;20652;-66
2022/11/04 05:08:52;;;;;;;3.30;2.40;;;11.60;99.90;;;;;;5045677;28;20200;-65
2022/11/04 05:11:19;;;;;;;2.27;1.90;;;11.60;99.90;;;;;;5047696;28;20707;-66
2022/11/04 05:13:47;;;;;;;2.73;2.10;;;11.60;99.90;;;;;;5048120;28;20217;-67
2022/11/04 05:16:14;;;;;;;3.03;2.10;;;11.60;99.90;;;;;;5025754;28;20215;-67
2022/11/04 05:18:41;;;;;;;10.23;3.70;;;11.60;99.90;;;;;;5045437;28;20190;-66
2022/11/04 05:21:11;;;;;;;6.53;3.23;;;11.60;99.90;;;;;;5040507;28;20566;-66
2022/11/04 05:23:40;;;;;;;6.83;3.47;;;11.50;99.90;;;;;;5046090;28;20320;-66
2022/11/04 05:26:07;;;;;;;4.47;3.03;;;11.50;99.90;;;;;;5043794;28;20236;-67
2022/11/04 05:28:34;;;;;;;3.60;2.70;;;11.60;99.90;;;;;;5036876;28;20202;-66
2022/11/04 05:31:03;;;;;;;5.30;3.10;;;11.50;99.90;;;;;;5043213;28;20216;-66
2022/11/04 05:33:31;;;;;;;4.03;2.67;;;11.50;99.90;;;;;;5046825;28;20217;-66
2022/11/04 05:36:06;;;;;;;5.07;2.80;;;11.60;99.90;;;;;;5046904;28;20549;-66
2022/11/04 05:38:34;;;;;;;5.23;2.40;;;11.60;99.90;;;;;;5044272;28;20190;-65
2022/11/04 05:41:02;;;;;;;2.83;2.20;;;11.60;99.90;;;;;;5035797;28;20214;-66
2022/11/04 05:43:30;;;;;;;6.60;3.20;;;11.60;99.90;;;;;;5046585;28;20212;-65
2022/11/04 05:45:58;;;;;;;5.10;2.60;;;11.60;99.90;;;;;;5041378;28;20190;-65
2022/11/04 05:48:26;;;;;;;3.10;2.63;;;11.60;99.90;;;;;;5041309;28;20190;-65
2022/11/04 05:50:53;;;;;;;3.47;2.03;;;11.60;99.90;;;;;;5041436;28;20210;-66
2022/11/04 05:53:21;;;;;;;6.27;3.77;;;11.60;99.90;;;;;;5040574;28;20216;-65
2022/11/04 05:55:48;;;;;;;6.60;3.40;;;11.60;99.90;;;;;;5039414;28;20198;-64
2022/11/04 05:58:17;;;;;;;5.50;2.87;;;11.60;99.90;;;;;;5041544;28;20593;-65
2022/11/04 06:00:44;;;;;;;4.97;3.13;;;11.60;99.90;;;;;;5045652;28;20209;-65
2022/11/04 06:03:11;;;;;;;2.63;2.40;;;11.60;99.90;;;;;;5018810;28;20205;-65
2022/11/04 06:05:38;;;;;;;4.97;2.50;;;11.60;99.90;;;;;;5045020;28;20299;-65
2022/11/04 06:08:06;;;;;;;3.20;2.27;;;11.60;99.90;;;;;;5032536;28;20196;-65
2022/11/04 06:10:33;;;;;;;4.23;2.40;;;11.60;99.90;;;;;;5037714;28;20197;-65
2022/11/04 06:13:00;;;;;;;2.67;2.10;;;11.60;99.90;;;;;;5030893;28;20222;-66
2022/11/04 06:15:29;;;;;;;4.07;2.70;;;11.60;99.90;;;;;;5037307;28;20209;-64
2022/11/04 06:17:56;;;;;;;7.13;3.23;;;11.60;99.90;;;;;;5050743;28;20200;-65
2022/11/04 06:20:23;;;;;;;7.57;3.33;;;11.60;99.90;;;;;;5051241;28;20236;-66
2022/11/04 06:22:50;;;;;;;5.37;2.77;;;11.70;99.90;;;;;;5049153;28;20190;-65
2022/11/04 06:25:17;;;;;;;3.13;2.60;;;11.70;99.90;;;;;;5041128;28;20226;-65
2022/11/04 06:27:45;;;;;;;5.63;2.30;;;11.70;99.90;;;;;;5049519;28;20194;-65
2022/11/04 06:30:12;;;;;;;5.30;3.10;;;11.70;99.90;;;;;;5045175;28;20208;-65
2022/11/04 06:32:41;;;;;;;3.97;2.70;;;11.70;99.90;;;;;;5048800;28;20213;-64
2022/11/04 06:35:08;;;;;;;3.47;2.60;;;11.70;99.90;;;;;;5044014;28;20212;-66
2022/11/04 06:37:36;;;;;;;4.50;2.70;;;11.70;99.90;;;;;;5047939;28;20187;-65
2022/11/04 06:40:04;;;;;;;5.13;3.20;;;11.70;99.90;;;;;;5047788;28;20190;-65
2022/11/04 06:42:34;;;;;;;6.53;3.57;;;11.70;99.90;;;;;;5050074;28;20693;-66
2022/11/04 06:45:02;;;;;;;5.33;3.43;;;11.70;99.90;;;;;;5049298;28;20193;-65
2022/11/04 06:47:29;;;;;;;5.53;2.87;;;11.70;99.90;;;;;;5044330;28;20209;-65
2022/11/04 06:49:57;;;;;;;6.10;3.13;;;11.70;99.90;;;;;;5033026;28;20232;-66
2022/11/04 06:52:25;;;;;;;11.83;4.60;;;11.80;99.90;;;;;;5047942;28;20758;-65
2022/11/04 06:54:52;;;;;;;7.80;3.93;;;11.70;99.90;;;;;;5043695;28;20196;-65
2022/11/04 06:57:19;;;;;;;5.13;3.37;;;11.80;99.90;;;;;;5039570;28;20708;-65
2022/11/04 06:59:46;;;;;;;3.43;2.50;;;11.80;99.90;;;;;;5046259;28;20280;-66
2022/11/04 07:02:13;;;;;;;3.37;2.60;;;11.80;99.90;;;;;;5043797;28;20316;-66
2022/11/04 07:04:40;;;;;;;3.10;2.47;;;11.80;99.90;;;;;;5042243;28;20186;-65
2022/11/04 07:07:09;;;;;;;5.93;3.50;;;11.80;99.90;;;;;;5039197;28;20190;-65
2022/11/04 07:09:37;;;;;;;7.30;3.83;;;11.80;99.90;;;;;;5031552;28;20300;-66
2022/11/04 07:12:05;;;;;;;10.67;5.10;;;11.80;99.90;;;;;;5032079;28;20650;-65
2022/11/04 07:14:32;;;;;;;5.67;3.40;;;11.80;99.90;;;;;;5035134;28;20205;-65
2022/11/04 07:16:59;;;;;;;7.07;3.53;;;11.80;99.90;;;;;;5045370;28;20201;-65
2022/11/04 07:19:26;;;;;;;6.97;4.40;;;11.90;99.90;;;;;;5039035;28;20426;-66
2022/11/04 07:21:54;;;;;;;9.53;4.53;;;11.80;99.90;;;;;;5041175;28;20201;-66
2022/11/04 07:24:22;;;;;;;9.40;4.27;;;11.80;99.90;;;;;;5039712;28;20320;-65
2022/11/04 07:26:50;;;;;;;10.07;4.10;;;11.80;99.90;;;;;;5047864;28;20283;-64
2022/11/04 07:29:17;;;;;;;13.13;4.57;;;11.80;99.90;;;;;;5044275;28;20285;-64
2022/11/04 07:31:44;;;;;;;10.57;3.93;;;11.80;99.90;;;;;;5036136;28;20190;-65
2022/11/04 07:34:11;;;;;;;9.60;4.20;;;11.70;99.90;;;;;;5042756;28;20214;-65
2022/11/04 07:36:39;;;;;;;8.23;4.13;;;11.70;99.90;;;;;;5046287;28;20240;-66
2022/11/04 07:39:08;;;;;;;8.87;4.47;;;11.70;99.90;;;;;;5045461;28;20576;-65
2022/11/04 07:41:38;;;;;;;7.77;4.73;;;11.70;99.90;;;;;;5047055;28;20218;-64
2022/11/04 07:44:06;;;;;;;11.67;4.80;;;11.70;99.90;;;;;;5044461;28;20193;-65
2022/11/04 07:46:33;;;;;;;12.73;4.30;;;11.80;99.90;;;;;;5039265;28;20614;-65
2022/11/04 07:49:01;;;;;;;7.07;3.67;;;11.70;99.90;;;;;;5046009;28;20213;-65
2022/11/04 07:51:29;;;;;;;5.53;3.30;;;11.80;99.90;;;;;;5039390;28;20281;-65
2022/11/04 07:53:56;;;;;;;9.13;4.53;;;11.80;99.90;;;;;;5044706;28;20220;-66
2022/11/04 07:56:23;;;;;;;8.23;4.60;;;11.90;99.90;;;;;;5041428;28;20585;-65
2022/11/04 07:58:52;;;;;;;17.50;5.03;;;11.90;99.90;;;;;;5044262;28;20194;-65
2022/11/04 08:01:23;;;;;;;15.13;5.17;;;11.90;99.90;;;;;;5041534;28;20190;-66
2022/11/04 08:03:51;;;;;;;9.03;5.00;;;11.90;99.90;;;;;;5046170;28;20185;-65
2022/11/04 08:06:20;;;;;;;8.20;4.80;;;11.90;99.90;;;;;;5034057;28;20216;-66
2022/11/04 08:08:47;;;;;;;12.53;5.23;;;11.90;99.90;;;;;;5032610;28;20202;-65
2022/11/04 08:11:16;;;;;;;7.40;4.53;;;11.90;99.90;;;;;;5036329;28;20284;-65
2022/11/04 08:13:43;;;;;;;8.83;4.20;;;12.00;99.90;;;;;;5032703;28;20609;-65
2022/11/04 08:16:15;;;;;;;8.83;4.67;;;12.00;99.90;;;;;;5032985;28;20291;-65
2022/11/04 08:18:44;;;;;;;9.33;4.93;;;12.10;99.90;;;;;;5017485;28;20200;-65
2022/11/04 08:21:12;;;;;;;15.00;4.87;;;12.20;99.90;;;;;;5037122;28;20303;-64
2022/11/04 08:23:39;;;;;;;13.07;5.60;;;12.20;99.90;;;;;;5040645;28;20235;-66
2022/11/04 08:26:08;;;;;;;12.63;5.63;;;12.20;99.90;;;;;;5035127;28;20230;-66
2022/11/04 08:28:38;;;;;;;9.93;4.77;;;12.20;99.90;;;;;;5039966;28;20213;-65
2022/11/04 08:31:08;;;;;;;13.60;5.07;;;12.20;99.90;;;;;;5035936;28;20232;-65
2022/11/04 08:33:37;;;;;;;9.20;4.93;;;12.20;99.90;;;;;;5040741;28;20210;-65
2022/11/04 08:36:07;;;;;;;11.17;5.00;;;12.20;99.90;;;;;;5043968;28;20191;-65
2022/11/04 08:38:35;;;;;;;9.77;4.80;;;12.30;99.90;;;;;;5037681;28;20282;-65
2022/11/04 08:41:05;;;;;;;10.90;4.60;;;12.30;99.90;;;;;;5015141;28;20194;-65
2022/11/04 08:43:35;;;;;;;9.43;4.20;;;12.40;99.90;;;;;;5037203;28;20190;-65
2022/11/04 08:46:06;;;;;;;17.77;4.53;;;12.40;99.90;;;;;;5015427;28;20197;-65
2022/11/04 08:48:37;;;;;;;9.30;4.17;;;12.10;99.90;;;;;;5032545;28;21023;-65
2022/11/04 08:51:06;;;;;;;4.87;3.30;;;12.50;99.90;;;;;;5043789;28;20193;-65
2022/11/04 08:53:33;;;;;;;10.37;4.40;;;12.50;99.90;;;;;;5040213;28;20213;-65
2022/11/04 08:56:00;;;;;;;8.00;3.97;;;12.50;99.90;;;;;;5037653;28;20197;-64
2022/11/04 08:58:27;;;;;;;8.30;4.27;;;12.60;99.90;;;;;;5039215;28;20281;-65
2022/11/04 09:00:55;;;;;;;9.50;4.80;;;12.70;99.90;;;;;;5035900;28;20254;-66
2022/11/04 09:03:22;;;;;;;14.07;5.67;;;12.70;99.90;;;;;;5031094;28;20205;-64
2022/11/04 09:05:51;;;;;;;15.07;4.87;;;12.30;99.90;;;;;;5034778;28;20240;-66
2022/11/04 09:08:18;;;;;;;10.47;5.10;;;12.70;99.90;;;;;;5032775;28;20198;-64
2022/11/04 09:10:47;;;;;;;10.30;4.90;;;12.80;99.90;;;;;;5033732;28;20199;-65
2022/11/04 09:13:16;;;;;;;5.43;4.03;;;12.80;99.90;;;;;;5033928;28;20194;-65
2022/11/04 09:15:44;;;;;;;6.43;3.50;;;12.90;99.90;;;;;;5016855;28;20210;-64
2022/11/04 09:18:11;;;;;;;7.43;4.23;;;13.00;99.90;;;;;;5040884;28;20202;-66
2022/11/04 09:20:38;;;;;;;9.00;3.93;;;13.00;99.90;;;;;;5038990;28;20362;-66
2022/11/04 09:23:10;;;;;;;8.87;3.93;;;13.10;99.90;;;;;;5035088;28;20199;-65
2022/11/04 09:25:38;;;;;;;5.90;4.00;;;13.10;99.90;;;;;;5038960;28;20242;-66
2022/11/04 09:28:05;;;;;;;5.77;3.93;;;13.10;99.90;;;;;;5037274;28;20222;-66
2022/11/04 09:30:33;;;;;;;9.90;4.03;;;13.10;99.90;;;;;;5041800;28;20286;-66
2022/11/04 09:33:00;;;;;;;9.27;4.17;;;13.10;99.90;;;;;;5042783;28;20195;-66
2022/11/04 09:35:27;;;;;;;6.17;3.83;;;13.20;99.90;;;;;;5039058;28;20230;-65
2022/11/04 09:37:55;;;;;;;10.07;4.30;;;13.20;99.90;;;;;;5039412;28;20645;-65
2022/11/04 09:40:25;;;;;;;8.87;4.37;;;13.20;99.90;;;;;;5033380;28;20202;-64
2022/11/04 09:43:03;;;;;;;11.27;4.60;;;13.20;99.90;;;;;;5032361;28;20641;-64
2022/11/04 09:45:33;;;;;;;6.37;4.00;;;13.20;99.90;;;;;;5026515;28;20228;-65
2022/11/04 09:48:04;;;;;;;6.57;3.60;;;13.20;99.90;;;;;;5042894;28;20278;-65
2022/11/04 09:50:45;;;;;;;8.80;4.03;;;13.20;99.90;;;;;;5040283;28;20272;-65
2022/11/04 09:53:19;;;;;;;10.30;4.30;;;13.30;99.90;;;;;;5041253;28;20225;-65
2022/11/04 09:55:54;;;;;;;10.07;4.03;;;13.50;99.90;;;;;;5040746;28;20287;-66
2022/11/04 09:58:21;;;;;;;7.83;4.20;;;13.70;99.90;;;;;;5039383;28;20191;-66
2022/11/04 10:00:54;;;;;;;6.40;3.87;;;13.70;99.90;;;;;;5037466;28;20671;-65
2022/11/04 10:03:40;;;;;;;11.50;4.23;;;13.70;99.90;;;;;;5039120;28;20213;-66
2022/11/04 10:06:21;;;;;;;8.70;4.33;;;13.70;99.90;;;;;;5035387;28;20562;-65
2022/11/04 10:09:06;;;;;;;5.97;3.67;;;13.70;99.90;;;;;;5027417;28;20199;-65
2022/11/04 10:11:42;;;;;;;14.20;4.57;;;13.70;99.90;;;;;;5028863;28;20274;-65
2022/11/04 10:14:45;;;;;;;10.87;4.70;;;13.70;99.90;;;;;;5041025;28;20622;-65
2022/11/04 10:17:30;;;;;;;9.30;4.57;;;13.70;99.90;;;;;;5033630;28;20216;-65
2022/11/04 10:20:12;;;;;;;6.13;3.77;;;13.70;99.90;;;;;;5036259;28;20224;-65
2022/11/04 10:22:49;;;;;;;10.07;4.13;;;13.80;99.90;;;;;;5035607;28;20206;-65
2022/11/04 10:25:22;;;;;;;10.37;5.20;;;13.80;99.90;;;;;;5035015;28;20307;-65
2022/11/04 10:27:52;;;;;;;10.10;4.97;;;13.80;99.90;;;;;;5033876;28;20192;-65
2022/11/04 10:30:21;;;;;;;8.10;4.60;;;13.80;99.90;;;;;;5031273;28;20191;-65
2022/11/04 10:32:58;;;;;;;10.57;4.40;;;13.80;99.90;;;;;;5037673;28;20238;-65
2022/11/04 10:35:33;;;;;;;11.57;4.50;;;13.80;99.90;;;;;;5038677;28;20206;-66
2022/11/04 10:38:16;;;;;;;8.07;5.13;;;13.80;99.90;;;;;;5036938;28;20195;-65
2022/11/04 10:40:47;;;;;;;8.17;4.33;;;13.50;99.90;;;;;;5032305;28;20452;-65
2022/11/04 10:43:22;;;;;;;7.73;4.60;;;13.80;99.90;;;;;;5022777;28;20208;-65
2022/11/04 10:46:01;;;;;;;8.87;4.20;;;13.80;99.90;;;;;;5040977;28;20187;-65
2022/11/04 10:48:33;;;;;;;8.47;4.77;;;13.80;99.90;;;;;;5040729;28;20195;-65
2022/11/04 10:51:00;;;;;;;9.37;5.03;;;13.80;99.90;;;;;;5038779;28;20200;-65
2022/11/04 10:53:30;;;;;;;7.07;5.17;;;13.70;99.90;;;;;;5033261;28;20205;-65
2022/11/04 10:56:03;;;;;;;8.63;4.60;;;13.70;99.90;;;;;;5023389;28;20225;-65
2022/11/04 10:58:32;;;;;;;9.63;5.10;;;13.70;99.90;;;;;;5039485;28;20227;-66
2022/11/04 11:01:20;;;;;;;8.20;4.73;;;13.70;99.90;;;;;;5039512;28;20221;-65
2022/11/04 11:03:47;;;;;;;8.97;4.10;;;13.70;99.90;;;;;;5040890;28;20223;-65
2022/11/04 11:06:21;;;;;;;11.17;4.37;;;13.60;99.90;;;;;;5040067;28;20206;-65
2022/11/04 11:08:48;;;;;;;6.00;3.87;;;13.60;99.90;;;;;;5036248;28;20189;-65
2022/11/04 11:11:16;;;;;;;8.27;4.00;;;13.60;99.90;;;;;;5046619;28;20203;-65
2022/11/04 11:13:46;;;;;;;6.63;3.77;;;13.60;99.90;;;;;;5048470;28;20212;-65
2022/11/04 11:16:19;;;;;;;6.30;4.13;;;13.60;99.90;;;;;;5027801;28;20228;-66
2022/11/04 11:19:06;;;;;;;5.80;3.80;;;13.70;99.90;;;;;;5038767;28;20193;-64
2022/11/04 11:21:43;;;;;;;11.17;5.30;;;13.70;99.90;;;;;;5028397;28;20205;-65
2022/11/04 11:24:16;;;;;;;11.30;5.40;;;13.80;99.90;;;;;;5035453;28;20242;-65
2022/11/04 11:26:48;;;;;;;14.63;5.53;;;13.70;99.90;;;;;;5039314;28;20198;-65
2022/11/04 11:29:22;;;;;;;12.73;6.17;;;13.80;99.90;;;;;;5027849;28;20351;-65
2022/11/04 11:31:51;;;;;;;12.40;6.40;;;13.80;99.90;;;;;;5036693;28;20247;-64
2022/11/04 11:34:25;;;;;;;11.00;5.97;;;13.80;99.90;;;;;;5040501;28;20307;-65
2022/11/04 11:36:55;;;;;;;9.63;5.40;;;13.80;99.90;;;;;;5046109;28;20250;-65
2022/11/04 11:39:25;;;;;;;9.93;5.43;;;13.90;99.90;;;;;;5043306;28;20198;-64
2022/11/04 11:41:57;;;;;;;11.00;5.77;;;13.90;99.90;;;;;;5038926;28;20201;-65
2022/11/04 11:44:31;;;;;;;8.97;4.53;;;13.90;99.90;;;;;;5045365;28;20203;-64
2022/11/04 11:47:00;;;;;;;11.20;4.90;;;13.90;99.90;;;;;;5036935;28;20193;-64
2022/11/04 11:49:30;;;;;;;10.87;5.90;;;13.90;99.90;;;;;;5043165;28;20284;-65
2022/11/04 11:52:23;;;;;;;11.67;5.73;;;13.90;99.90;;;;;;5034553;28;20191;-66
2022/11/04 11:54:56;;;;;;;11.70;6.23;;;13.90;99.90;;;;;;5038366;28;20204;-66
2022/11/04 11:57:33;;;;;;;10.00;5.33;;;13.90;99.90;;;;;;5022790;28;20211;-65
2022/11/04 12:00:08;;;;;;;7.03;4.63;;;13.80;99.90;;;;;;5042154;28;20228;-65
2022/11/04 12:02:53;;;;;;;8.83;4.70;;;13.80;99.90;;;;;;5041231;28;20623;-65
2022/11/04 12:05:28;;;;;;;7.27;4.10;;;13.80;99.90;;;;;;5044251;28;20550;-65
2022/11/04 12:08:04;;;;;;;8.63;4.70;;;13.70;99.90;;;;;;5032779;28;20208;-65
2022/11/04 12:10:40;;;;;;;7.87;4.20;;;13.70;99.90;;;;;;5038041;28;20197;-65
2022/11/04 12:13:15;;;;;;;8.27;4.60;;;13.70;99.90;;;;;;5033912;28;20188;-65
2022/11/04 12:16:02;;;;;;;9.07;4.90;;;13.70;99.90;;;;;;5031779;28;20298;-65
2022/11/04 12:18:42;;;;;;;10.70;5.87;;;13.60;99.90;;;;;;5032607;28;20247;-65
2022/11/04 12:21:15;;;;;;;9.80;5.43;;;13.60;99.90;;;;;;5026285;28;20629;-65
2022/11/04 12:23:51;;;;;;;8.37;4.90;;;13.50;99.90;;;;;;5042735;28;20188;-64
2022/11/04 12:26:29;;;;;;;8.33;4.70;;;13.50;99.90;;;;;;5041682;28;20196;-66
2022/11/04 12:29:17;;;;;;;11.40;5.40;;;13.40;99.90;;;;;;5020854;28;20540;-64
2022/11/04 12:31:53;;;;;;;9.17;4.87;;;13.40;99.90;;;;;;5031392;28;20208;-64
2022/11/04 12:34:31;;;;;;;9.83;4.63;;;13.30;99.90;;;;;;5046933;28;20200;-65
2022/11/04 12:37:12;;;;;;;8.53;4.73;;;13.30;99.90;;;;;;5041360;28;20238;-66
2022/11/04 12:39:55;;;;;;;9.33;4.97;;;13.40;99.90;;;;;;5023514;28;20208;-65
2022/11/04 12:42:28;;;;;;;6.93;4.33;;;13.30;99.90;;;;;;5044353;28;20188;-64
2022/11/04 12:45:08;;;;;;;6.87;4.20;;;13.30;99.90;;;;;;5037909;28;20750;-65
2022/11/04 12:47:39;;;;;;;14.20;4.67;;;13.30;99.90;;;;;;5041942;28;20291;-65
2022/11/04 12:50:25;;;;;;;11.10;5.20;;;13.40;99.90;;;;;;5041050;28;20190;-66
2022/11/04 12:53:09;;;;;;;8.93;4.97;;;13.40;99.90;;;;;;5036880;28;20203;-65
2022/11/04 12:55:45;;;;;;;10.13;5.37;;;13.40;99.90;;;;;;5038710;28;20220;-65
2022/11/04 12:58:35;;;;;;;11.17;5.90;;;13.40;99.90;;;;;;5043025;28;20655;-66
2022/11/04 13:01:06;;;;;;;11.27;5.80;;;13.40;99.90;;;;;;5038716;28;20275;-64
2022/11/04 13:03:41;;;;;;;12.13;5.90;;;13.40;99.90;;;;;;5036605;28;20588;-65
2022/11/04 13:06:13;;;;;;;14.80;6.67;;;13.40;99.90;;;;;;5038579;28;20195;-65
2022/11/04 13:08:46;;;;;;;12.67;6.27;;;13.40;99.90;;;;;;5039982;28;20192;-65
2022/11/04 13:11:23;;;;;;;11.70;6.07;;;13.40;99.90;;;;;;5038300;28;20192;-65
2022/11/04 13:13:58;;;;;;;15.33;5.87;;;13.40;99.90;;;;;;5038765;28;20310;-65
2022/11/04 13:16:27;;;;;;;13.07;6.37;;;13.40;99.90;;;;;;5039778;28;20202;-65
2022/11/04 13:18:58;;;;;;;12.00;5.73;;;13.40;99.90;;;;;;5036873;28;20192;-65
2022/11/04 13:21:28;;;;;;;8.03;4.93;;;13.50;99.90;;;;;;5042973;28;20516;-65
2022/11/04 13:24:03;;;;;;;10.47;5.10;;;13.50;99.90;;;;;;5035334;28;20236;-65
2022/11/04 13:26:31;;;;;;;7.23;4.90;;;13.40;99.90;;;;;;5020733;28;20204;-65
2022/11/04 13:29:04;;;;;;;11.77;5.83;;;13.40;99.90;;;;;;5035206;28;20200;-66
2022/11/04 13:31:44;;;;;;;12.43;6.07;;;13.40;99.90;;;;;;5040860;28;20281;-65